sensor_id;sensor_type;location;lat;lon;timestamp;P1;durP1;ratioP1;P2;durP2;ratioP2
11230;SDS011;5672;51.060;3.734;2022-11-25T00:02:19;11.03;;;4.90;;
11230;SDS011;5672;51.060;3.734;2022-11-25T00:04:46;10.87;;;5.27;;
11230;SDS011;5672;51.060;3.734;2022-11-25T00:07:12;12.37;;;4.87;;
11230;SDS011;5672;51.060;3.734;2022-11-25T00:09:38;9.17;;;4.23;;
11230;SDS011;5672;51.060;3.734;2022-11-25T00:12:04;13.60;;;4.43;;
11230;SDS011;5672;51.060;3.734;2022-11-25T00:14:30;10.70;;;4.17;;
11230;SDS011;5672;51.060;3.734;2022-11-25T00:16:56;12.07;;;3.87;;
11230;SDS011;5672;51.060;3.734;2022-11-25T00:19:22;9.30;;;3.37;;
11230;SDS011;5672;51.060;3.734;2022-11-25T00:21:48;7.93;;;4.40;;
11230;SDS011;5672;51.060;3.734;2022-11-25T00:24:14;10.40;;;3.50;;
11230;SDS011;5672;51.060;3.734;2022-11-25T00:26:41;9.17;;;3.50;;
11230;SDS011;5672;51.060;3.734;2022-11-25T00:29:08;11.13;;;3.80;;
11230;SDS011;5672;51.060;3.734;2022-11-25T00:31:35;8.03;;;3.40;;
11230;SDS011;5672;51.060;3.734;2022-11-25T00:34:02;8.00;;;3.40;;
11230;SDS011;5672;51.060;3.734;2022-11-25T00:36:30;5.67;;;2.97;;
11230;SDS011;5672;51.060;3.734;2022-11-25T00:38:57;7.90;;;3.70;;
11230;SDS011;5672;51.060;3.734;2022-11-25T00:41:24;10.30;;;3.33;;
11230;SDS011;5672;51.060;3.734;2022-11-25T00:44:09;7.90;;;2.93;;
11230;SDS011;5672;51.060;3.734;2022-11-25T00:46:54;4.93;;;2.67;;
11230;SDS011;5672;51.060;3.734;2022-11-25T00:49:20;5.47;;;3.00;;
11230;SDS011;5672;51.060;3.734;2022-11-25T00:51:46;4.00;;;2.50;;
11230;SDS011;5672;51.060;3.734;2022-11-25T00:54:13;6.40;;;2.87;;
11230;SDS011;5672;51.060;3.734;2022-11-25T00:56:39;3.57;;;2.63;;
11230;SDS011;5672;51.060;3.734;2022-11-25T00:59:05;8.67;;;4.13;;
11230;SDS011;5672;51.060;3.734;2022-11-25T01:01:31;4.90;;;3.93;;
11230;SDS011;5672;51.060;3.734;2022-11-25T01:03:57;6.90;;;3.53;;
11230;SDS011;5672;51.060;3.734;2022-11-25T01:06:23;3.93;;;3.07;;
11230;SDS011;5672;51.060;3.734;2022-11-25T01:08:49;5.40;;;3.30;;
11230;SDS011;5672;51.060;3.734;2022-11-25T01:11:17;4.80;;;3.13;;
11230;SDS011;5672;51.060;3.734;2022-11-25T01:13:43;3.73;;;2.80;;
11230;SDS011;5672;51.060;3.734;2022-11-25T01:16:10;3.60;;;3.20;;
11230;SDS011;5672;51.060;3.734;2022-11-25T01:18:37;4.70;;;3.50;;
11230;SDS011;5672;51.060;3.734;2022-11-25T01:21:06;4.67;;;2.90;;
11230;SDS011;5672;51.060;3.734;2022-11-25T01:23:33;3.00;;;2.70;;
11230;SDS011;5672;51.060;3.734;2022-11-25T01:26:03;2.53;;;2.30;;
11230;SDS011;5672;51.060;3.734;2022-11-25T01:28:29;2.77;;;2.10;;
11230;SDS011;5672;51.060;3.734;2022-11-25T01:31:02;2.57;;;2.23;;
11230;SDS011;5672;51.060;3.734;2022-11-25T01:33:28;2.37;;;1.77;;
11230;SDS011;5672;51.060;3.734;2022-11-25T01:35:56;2.57;;;2.13;;
11230;SDS011;5672;51.060;3.734;2022-11-25T01:38:24;3.10;;;2.50;;
11230;SDS011;5672;51.060;3.734;2022-11-25T01:40:50;2.63;;;2.43;;
11230;SDS011;5672;51.060;3.734;2022-11-25T01:43:16;3.07;;;2.47;;
11230;SDS011;5672;51.060;3.734;2022-11-25T01:45:42;5.40;;;2.33;;
11230;SDS011;5672;51.060;3.734;2022-11-25T01:48:13;3.93;;;1.97;;
11230;SDS011;5672;51.060;3.734;2022-11-25T01:50:41;3.47;;;2.10;;
11230;SDS011;5672;51.060;3.734;2022-11-25T01:53:08;2.00;;;1.90;;
11230;SDS011;5672;51.060;3.734;2022-11-25T01:55:35;6.20;;;3.10;;
11230;SDS011;5672;51.060;3.734;2022-11-25T01:58:04;5.87;;;2.90;;
11230;SDS011;5672;51.060;3.734;2022-11-25T02:00:31;4.63;;;2.30;;
11230;SDS011;5672;51.060;3.734;2022-11-25T02:02:57;4.63;;;3.20;;
11230;SDS011;5672;51.060;3.734;2022-11-25T02:05:34;4.43;;;3.67;;
11230;SDS011;5672;51.060;3.734;2022-11-25T02:08:02;5.83;;;2.70;;
11230;SDS011;5672;51.060;3.734;2022-11-25T02:10:29;3.97;;;2.43;;
11230;SDS011;5672;51.060;3.734;2022-11-25T02:12:56;4.07;;;2.20;;
11230;SDS011;5672;51.060;3.734;2022-11-25T02:15:23;4.73;;;2.10;;
11230;SDS011;5672;51.060;3.734;2022-11-25T02:17:49;4.77;;;2.00;;
11230;SDS011;5672;51.060;3.734;2022-11-25T02:20:19;3.00;;;1.67;;
11230;SDS011;5672;51.060;3.734;2022-11-25T02:25:16;4.17;;;1.90;;
11230;SDS011;5672;51.060;3.734;2022-11-25T02:27:43;4.90;;;2.80;;
11230;SDS011;5672;51.060;3.734;2022-11-25T02:30:10;5.47;;;2.27;;
11230;SDS011;5672;51.060;3.734;2022-11-25T02:32:41;4.83;;;2.03;;
11230;SDS011;5672;51.060;3.734;2022-11-25T02:37:52;5.90;;;2.63;;
11230;SDS011;5672;51.060;3.734;2022-11-25T02:40:20;4.07;;;2.30;;
11230;SDS011;5672;51.060;3.734;2022-11-25T02:42:46;6.07;;;2.73;;
11230;SDS011;5672;51.060;3.734;2022-11-25T02:45:13;5.40;;;3.00;;
11230;SDS011;5672;51.060;3.734;2022-11-25T02:47:40;5.63;;;2.73;;
11230;SDS011;5672;51.060;3.734;2022-11-25T02:50:06;7.83;;;3.63;;
11230;SDS011;5672;51.060;3.734;2022-11-25T02:52:32;7.17;;;3.57;;
11230;SDS011;5672;51.060;3.734;2022-11-25T02:54:58;9.93;;;4.97;;
11230;SDS011;5672;51.060;3.734;2022-11-25T02:57:24;11.17;;;4.83;;
11230;SDS011;5672;51.060;3.734;2022-11-25T02:59:50;10.53;;;5.10;;
11230;SDS011;5672;51.060;3.734;2022-11-25T03:02:16;10.73;;;5.63;;
11230;SDS011;5672;51.060;3.734;2022-11-25T03:04:42;14.23;;;5.47;;
11230;SDS011;5672;51.060;3.734;2022-11-25T03:07:08;12.53;;;5.77;;
11230;SDS011;5672;51.060;3.734;2022-11-25T03:09:34;13.07;;;5.20;;
11230;SDS011;5672;51.060;3.734;2022-11-25T03:12:00;12.23;;;5.40;;
11230;SDS011;5672;51.060;3.734;2022-11-25T03:14:45;12.83;;;4.53;;
11230;SDS011;5672;51.060;3.734;2022-11-25T03:17:11;14.37;;;5.63;;
11230;SDS011;5672;51.060;3.734;2022-11-25T03:19:38;12.63;;;5.20;;
11230;SDS011;5672;51.060;3.734;2022-11-25T03:22:04;13.20;;;4.53;;
11230;SDS011;5672;51.060;3.734;2022-11-25T03:24:31;11.33;;;4.70;;
11230;SDS011;5672;51.060;3.734;2022-11-25T03:26:57;13.67;;;5.33;;
11230;SDS011;5672;51.060;3.734;2022-11-25T03:29:23;10.63;;;4.47;;
11230;SDS011;5672;51.060;3.734;2022-11-25T03:31:49;11.20;;;4.57;;
11230;SDS011;5672;51.060;3.734;2022-11-25T03:34:15;10.40;;;4.17;;
11230;SDS011;5672;51.060;3.734;2022-11-25T03:36:41;11.40;;;4.37;;
11230;SDS011;5672;51.060;3.734;2022-11-25T03:39:07;7.93;;;3.73;;
11230;SDS011;5672;51.060;3.734;2022-11-25T03:41:33;9.27;;;4.17;;
11230;SDS011;5672;51.060;3.734;2022-11-25T03:43:58;8.93;;;3.77;;
11230;SDS011;5672;51.060;3.734;2022-11-25T03:46:24;9.90;;;3.87;;
11230;SDS011;5672;51.060;3.734;2022-11-25T03:48:50;9.63;;;3.63;;
11230;SDS011;5672;51.060;3.734;2022-11-25T03:51:16;10.37;;;3.53;;
11230;SDS011;5672;51.060;3.734;2022-11-25T03:53:42;7.87;;;3.40;;
11230;SDS011;5672;51.060;3.734;2022-11-25T03:56:08;8.00;;;3.17;;
11230;SDS011;5672;51.060;3.734;2022-11-25T03:58:34;9.03;;;3.33;;
11230;SDS011;5672;51.060;3.734;2022-11-25T04:01:01;6.93;;;3.10;;
11230;SDS011;5672;51.060;3.734;2022-11-25T04:03:27;7.57;;;2.70;;
11230;SDS011;5672;51.060;3.734;2022-11-25T04:05:53;6.23;;;2.73;;
11230;SDS011;5672;51.060;3.734;2022-11-25T04:08:19;7.80;;;2.90;;
11230;SDS011;5672;51.060;3.734;2022-11-25T04:10:47;5.63;;;2.37;;
11230;SDS011;5672;51.060;3.734;2022-11-25T04:13:13;7.80;;;2.43;;
11230;SDS011;5672;51.060;3.734;2022-11-25T04:15:45;6.43;;;1.97;;
11230;SDS011;5672;51.060;3.734;2022-11-25T04:18:12;4.13;;;1.80;;
11230;SDS011;5672;51.060;3.734;2022-11-25T04:20:38;4.37;;;2.40;;
11230;SDS011;5672;51.060;3.734;2022-11-25T04:23:04;6.00;;;1.93;;
11230;SDS011;5672;51.060;3.734;2022-11-25T04:25:31;9.00;;;2.47;;
11230;SDS011;5672;51.060;3.734;2022-11-25T04:27:56;6.70;;;2.10;;
11230;SDS011;5672;51.060;3.734;2022-11-25T04:30:22;4.03;;;2.10;;
11230;SDS011;5672;51.060;3.734;2022-11-25T04:32:48;5.47;;;2.20;;
11230;SDS011;5672;51.060;3.734;2022-11-25T04:35:14;4.53;;;2.20;;
11230;SDS011;5672;51.060;3.734;2022-11-25T04:37:40;3.87;;;1.80;;
11230;SDS011;5672;51.060;3.734;2022-11-25T04:40:06;4.40;;;1.73;;
11230;SDS011;5672;51.060;3.734;2022-11-25T04:42:33;4.37;;;1.80;;
11230;SDS011;5672;51.060;3.734;2022-11-25T04:45:01;7.90;;;2.03;;
11230;SDS011;5672;51.060;3.734;2022-11-25T04:47:28;4.40;;;2.03;;
11230;SDS011;5672;51.060;3.734;2022-11-25T04:49:54;3.23;;;1.80;;
11230;SDS011;5672;51.060;3.734;2022-11-25T04:52:20;3.73;;;1.73;;
11230;SDS011;5672;51.060;3.734;2022-11-25T04:54:46;4.47;;;1.90;;
11230;SDS011;5672;51.060;3.734;2022-11-25T04:57:12;3.90;;;1.70;;
11230;SDS011;5672;51.060;3.734;2022-11-25T04:59:39;5.47;;;2.17;;
11230;SDS011;5672;51.060;3.734;2022-11-25T05:02:05;3.90;;;1.90;;
11230;SDS011;5672;51.060;3.734;2022-11-25T05:04:32;2.57;;;1.87;;
11230;SDS011;5672;51.060;3.734;2022-11-25T05:06:58;8.27;;;2.33;;
11230;SDS011;5672;51.060;3.734;2022-11-25T05:09:24;8.03;;;2.10;;
11230;SDS011;5672;51.060;3.734;2022-11-25T05:11:50;7.13;;;2.40;;
11230;SDS011;5672;51.060;3.734;2022-11-25T05:14:16;4.03;;;2.00;;
11230;SDS011;5672;51.060;3.734;2022-11-25T05:16:42;4.07;;;2.37;;
11230;SDS011;5672;51.060;3.734;2022-11-25T05:19:08;3.73;;;2.10;;
11230;SDS011;5672;51.060;3.734;2022-11-25T05:21:34;4.20;;;1.70;;
11230;SDS011;5672;51.060;3.734;2022-11-25T05:24:00;3.67;;;2.20;;
11230;SDS011;5672;51.060;3.734;2022-11-25T05:26:26;3.73;;;1.83;;
11230;SDS011;5672;51.060;3.734;2022-11-25T05:28:52;5.13;;;2.20;;
11230;SDS011;5672;51.060;3.734;2022-11-25T05:31:18;6.57;;;1.90;;
11230;SDS011;5672;51.060;3.734;2022-11-25T05:33:43;11.73;;;2.60;;
11230;SDS011;5672;51.060;3.734;2022-11-25T05:36:09;4.73;;;2.03;;
11230;SDS011;5672;51.060;3.734;2022-11-25T05:38:35;3.63;;;1.80;;
11230;SDS011;5672;51.060;3.734;2022-11-25T05:41:03;5.60;;;2.17;;
11230;SDS011;5672;51.060;3.734;2022-11-25T05:43:29;4.97;;;1.90;;
11230;SDS011;5672;51.060;3.734;2022-11-25T05:45:55;3.83;;;2.07;;
11230;SDS011;5672;51.060;3.734;2022-11-25T05:48:21;6.93;;;2.30;;
11230;SDS011;5672;51.060;3.734;2022-11-25T05:50:47;4.30;;;2.10;;
11230;SDS011;5672;51.060;3.734;2022-11-25T05:53:13;4.07;;;2.10;;
11230;SDS011;5672;51.060;3.734;2022-11-25T05:55:41;4.77;;;2.00;;
11230;SDS011;5672;51.060;3.734;2022-11-25T05:58:07;5.17;;;1.90;;
11230;SDS011;5672;51.060;3.734;2022-11-25T06:00:33;7.50;;;2.57;;
11230;SDS011;5672;51.060;3.734;2022-11-25T06:02:59;2.40;;;1.80;;
11230;SDS011;5672;51.060;3.734;2022-11-25T06:05:25;6.00;;;2.23;;
11230;SDS011;5672;51.060;3.734;2022-11-25T06:07:51;5.97;;;1.80;;
11230;SDS011;5672;51.060;3.734;2022-11-25T06:10:17;4.07;;;1.40;;
11230;SDS011;5672;51.060;3.734;2022-11-25T06:12:43;4.83;;;1.70;;
11230;SDS011;5672;51.060;3.734;2022-11-25T06:15:09;2.87;;;1.83;;
11230;SDS011;5672;51.060;3.734;2022-11-25T06:17:35;2.67;;;1.70;;
11230;SDS011;5672;51.060;3.734;2022-11-25T06:20:01;3.87;;;2.07;;
11230;SDS011;5672;51.060;3.734;2022-11-25T06:22:27;6.50;;;2.07;;
11230;SDS011;5672;51.060;3.734;2022-11-25T06:24:53;4.97;;;2.10;;
11230;SDS011;5672;51.060;3.734;2022-11-25T06:27:19;3.33;;;1.63;;
11230;SDS011;5672;51.060;3.734;2022-11-25T06:29:45;4.33;;;1.83;;
11230;SDS011;5672;51.060;3.734;2022-11-25T06:32:11;3.17;;;1.73;;
11230;SDS011;5672;51.060;3.734;2022-11-25T06:34:37;5.70;;;2.27;;
11230;SDS011;5672;51.060;3.734;2022-11-25T06:37:06;5.80;;;1.97;;
11230;SDS011;5672;51.060;3.734;2022-11-25T06:39:32;3.67;;;2.13;;
11230;SDS011;5672;51.060;3.734;2022-11-25T06:42:03;5.33;;;2.27;;
11230;SDS011;5672;51.060;3.734;2022-11-25T06:44:29;4.77;;;2.07;;
11230;SDS011;5672;51.060;3.734;2022-11-25T06:46:55;7.33;;;2.57;;
11230;SDS011;5672;51.060;3.734;2022-11-25T06:49:21;3.77;;;1.93;;
11230;SDS011;5672;51.060;3.734;2022-11-25T06:51:48;4.53;;;1.93;;
11230;SDS011;5672;51.060;3.734;2022-11-25T06:54:14;4.07;;;2.17;;
11230;SDS011;5672;51.060;3.734;2022-11-25T06:56:40;6.40;;;2.37;;
11230;SDS011;5672;51.060;3.734;2022-11-25T06:59:06;5.60;;;2.30;;
11230;SDS011;5672;51.060;3.734;2022-11-25T07:01:33;6.90;;;2.33;;
11230;SDS011;5672;51.060;3.734;2022-11-25T07:04:00;4.77;;;2.50;;
11230;SDS011;5672;51.060;3.734;2022-11-25T07:06:27;6.67;;;2.53;;
11230;SDS011;5672;51.060;3.734;2022-11-25T07:08:53;7.63;;;2.47;;
11230;SDS011;5672;51.060;3.734;2022-11-25T07:13:45;6.27;;;2.90;;
11230;SDS011;5672;51.060;3.734;2022-11-25T07:16:12;7.45;;;2.65;;
11230;SDS011;5672;51.060;3.734;2022-11-25T07:18:38;8.87;;;3.10;;
11230;SDS011;5672;51.060;3.734;2022-11-25T07:21:05;7.97;;;2.70;;
11230;SDS011;5672;51.060;3.734;2022-11-25T07:23:32;5.73;;;2.67;;
11230;SDS011;5672;51.060;3.734;2022-11-25T07:26:02;12.10;;;3.37;;
11230;SDS011;5672;51.060;3.734;2022-11-25T07:28:28;9.67;;;2.90;;
11230;SDS011;5672;51.060;3.734;2022-11-25T07:30:54;8.33;;;3.37;;
11230;SDS011;5672;51.060;3.734;2022-11-25T07:33:20;9.10;;;3.37;;
11230;SDS011;5672;51.060;3.734;2022-11-25T07:35:46;10.93;;;3.27;;
11230;SDS011;5672;51.060;3.734;2022-11-25T07:38:12;8.03;;;3.50;;
11230;SDS011;5672;51.060;3.734;2022-11-25T07:40:38;9.53;;;3.33;;
11230;SDS011;5672;51.060;3.734;2022-11-25T07:43:04;8.63;;;3.43;;
11230;SDS011;5672;51.060;3.734;2022-11-25T07:45:30;9.37;;;4.17;;
11230;SDS011;5672;51.060;3.734;2022-11-25T07:47:56;8.50;;;3.60;;
11230;SDS011;5672;51.060;3.734;2022-11-25T07:50:22;14.40;;;4.37;;
11230;SDS011;5672;51.060;3.734;2022-11-25T07:52:48;8.77;;;3.47;;
11230;SDS011;5672;51.060;3.734;2022-11-25T07:55:17;10.63;;;3.67;;
11230;SDS011;5672;51.060;3.734;2022-11-25T07:57:42;13.07;;;4.20;;
11230;SDS011;5672;51.060;3.734;2022-11-25T08:00:09;8.87;;;3.43;;
11230;SDS011;5672;51.060;3.734;2022-11-25T08:02:35;11.00;;;3.53;;
11230;SDS011;5672;51.060;3.734;2022-11-25T08:05:01;10.20;;;4.43;;
11230;SDS011;5672;51.060;3.734;2022-11-25T08:07:27;9.13;;;3.47;;
11230;SDS011;5672;51.060;3.734;2022-11-25T08:09:53;8.70;;;3.47;;
11230;SDS011;5672;51.060;3.734;2022-11-25T08:12:18;8.17;;;3.23;;
11230;SDS011;5672;51.060;3.734;2022-11-25T08:14:44;10.33;;;3.40;;
11230;SDS011;5672;51.060;3.734;2022-11-25T08:17:10;5.80;;;3.80;;
11230;SDS011;5672;51.060;3.734;2022-11-25T08:19:36;9.10;;;3.73;;
11230;SDS011;5672;51.060;3.734;2022-11-25T08:22:04;9.97;;;3.00;;
11230;SDS011;5672;51.060;3.734;2022-11-25T08:24:30;11.00;;;3.33;;
11230;SDS011;5672;51.060;3.734;2022-11-25T08:26:56;7.47;;;2.70;;
11230;SDS011;5672;51.060;3.734;2022-11-25T08:29:25;10.57;;;2.90;;
11230;SDS011;5672;51.060;3.734;2022-11-25T08:31:51;6.43;;;2.93;;
11230;SDS011;5672;51.060;3.734;2022-11-25T08:34:21;9.70;;;3.43;;
11230;SDS011;5672;51.060;3.734;2022-11-25T08:36:47;6.53;;;3.07;;
11230;SDS011;5672;51.060;3.734;2022-11-25T08:39:14;3.93;;;2.57;;
11230;SDS011;5672;51.060;3.734;2022-11-25T08:41:40;6.00;;;2.83;;
11230;SDS011;5672;51.060;3.734;2022-11-25T08:44:06;11.27;;;3.53;;
11230;SDS011;5672;51.060;3.734;2022-11-25T08:46:34;8.90;;;3.40;;
11230;SDS011;5672;51.060;3.734;2022-11-25T08:49:02;10.73;;;3.03;;
11230;SDS011;5672;51.060;3.734;2022-11-25T08:51:29;5.90;;;2.83;;
11230;SDS011;5672;51.060;3.734;2022-11-25T08:53:55;8.87;;;3.10;;
11230;SDS011;5672;51.060;3.734;2022-11-25T08:56:21;9.30;;;3.80;;
11230;SDS011;5672;51.060;3.734;2022-11-25T08:58:48;9.63;;;3.83;;
11230;SDS011;5672;51.060;3.734;2022-11-25T09:01:14;13.40;;;4.13;;
11230;SDS011;5672;51.060;3.734;2022-11-25T09:03:42;9.57;;;4.20;;
11230;SDS011;5672;51.060;3.734;2022-11-25T09:06:08;13.90;;;4.63;;
11230;SDS011;5672;51.060;3.734;2022-11-25T09:08:35;9.50;;;4.53;;
11230;SDS011;5672;51.060;3.734;2022-11-25T09:11:02;11.37;;;4.53;;
11230;SDS011;5672;51.060;3.734;2022-11-25T09:13:28;11.40;;;4.63;;
11230;SDS011;5672;51.060;3.734;2022-11-25T09:15:54;11.33;;;4.70;;
11230;SDS011;5672;51.060;3.734;2022-11-25T09:18:20;17.43;;;4.67;;
11230;SDS011;5672;51.060;3.734;2022-11-25T09:20:50;11.97;;;4.23;;
11230;SDS011;5672;51.060;3.734;2022-11-25T09:23:16;10.87;;;4.47;;
11230;SDS011;5672;51.060;3.734;2022-11-25T09:25:49;11.90;;;5.00;;
11230;SDS011;5672;51.060;3.734;2022-11-25T09:28:15;11.93;;;4.57;;
11230;SDS011;5672;51.060;3.734;2022-11-25T09:30:41;10.70;;;4.67;;
11230;SDS011;5672;51.060;3.734;2022-11-25T09:33:07;11.77;;;4.03;;
11230;SDS011;5672;51.060;3.734;2022-11-25T09:35:33;13.83;;;3.90;;
11230;SDS011;5672;51.060;3.734;2022-11-25T09:37:59;8.80;;;3.90;;
11230;SDS011;5672;51.060;3.734;2022-11-25T09:40:33;8.50;;;3.63;;
11230;SDS011;5672;51.060;3.734;2022-11-25T09:51:37;11.20;;;4.20;;
11230;SDS011;5672;51.060;3.734;2022-11-25T09:56:34;7.63;;;3.73;;
11230;SDS011;5672;51.060;3.734;2022-11-25T09:59:14;12.43;;;4.13;;
11230;SDS011;5672;51.060;3.734;2022-11-25T10:01:44;12.53;;;4.50;;
11230;SDS011;5672;51.060;3.734;2022-11-25T10:04:13;7.10;;;3.50;;
11230;SDS011;5672;51.060;3.734;2022-11-25T10:07:02;10.50;;;4.10;;
11230;SDS011;5672;51.060;3.734;2022-11-25T10:09:28;10.57;;;4.03;;
11230;SDS011;5672;51.060;3.734;2022-11-25T10:11:55;10.23;;;4.20;;
11230;SDS011;5672;51.060;3.734;2022-11-25T10:14:36;10.27;;;4.23;;
11230;SDS011;5672;51.060;3.734;2022-11-25T10:17:17;13.00;;;4.23;;
11230;SDS011;5672;51.060;3.734;2022-11-25T10:22:21;11.90;;;4.47;;
11230;SDS011;5672;51.060;3.734;2022-11-25T10:24:48;15.57;;;4.40;;
11230;SDS011;5672;51.060;3.734;2022-11-25T10:27:17;15.43;;;4.40;;
11230;SDS011;5672;51.060;3.734;2022-11-25T10:29:43;12.90;;;4.60;;
11230;SDS011;5672;51.060;3.734;2022-11-25T10:32:24;10.83;;;4.50;;
11230;SDS011;5672;51.060;3.734;2022-11-25T10:34:55;11.67;;;4.07;;
11230;SDS011;5672;51.060;3.734;2022-11-25T10:37:29;11.07;;;4.60;;
11230;SDS011;5672;51.060;3.734;2022-11-25T10:39:56;14.73;;;4.20;;
11230;SDS011;5672;51.060;3.734;2022-11-25T10:42:23;12.00;;;4.07;;
11230;SDS011;5672;51.060;3.734;2022-11-25T10:44:49;12.43;;;3.97;;
11230;SDS011;5672;51.060;3.734;2022-11-25T10:52:31;98.57;;;49.67;;
11230;SDS011;5672;51.060;3.734;2022-11-25T10:55:09;57.73;;;34.27;;
11230;SDS011;5672;51.060;3.734;2022-11-25T10:57:36;44.17;;;23.40;;
11230;SDS011;5672;51.060;3.734;2022-11-25T11:00:03;32.37;;;15.20;;
11230;SDS011;5672;51.060;3.734;2022-11-25T11:05:02;23.40;;;8.90;;
11230;SDS011;5672;51.060;3.734;2022-11-25T11:07:40;20.03;;;8.87;;
11230;SDS011;5672;51.060;3.734;2022-11-25T11:10:20;17.97;;;6.77;;
11230;SDS011;5672;51.060;3.734;2022-11-25T11:15:20;17.77;;;6.50;;
11230;SDS011;5672;51.060;3.734;2022-11-25T11:17:46;16.10;;;6.27;;
11230;SDS011;5672;51.060;3.734;2022-11-25T11:20:15;17.00;;;6.40;;
11230;SDS011;5672;51.060;3.734;2022-11-25T11:27:45;13.47;;;5.43;;
11230;SDS011;5672;51.060;3.734;2022-11-25T11:30:22;20.83;;;5.67;;
11230;SDS011;5672;51.060;3.734;2022-11-25T11:32:59;14.23;;;5.27;;
11230;SDS011;5672;51.060;3.734;2022-11-25T11:38:19;16.83;;;5.60;;
11230;SDS011;5672;51.060;3.734;2022-11-25T11:40:50;8.67;;;4.63;;
11230;SDS011;5672;51.060;3.734;2022-11-25T12:03:43;13.07;;;4.53;;
11230;SDS011;5672;51.060;3.734;2022-11-25T12:06:13;20.20;;;5.30;;
11230;SDS011;5672;51.060;3.734;2022-11-25T12:08:44;14.20;;;4.53;;
11230;SDS011;5672;51.060;3.734;2022-11-25T12:11:14;19.20;;;4.97;;
11230;SDS011;5672;51.060;3.734;2022-11-25T12:21:23;12.47;;;3.93;;
11230;SDS011;5672;51.060;3.734;2022-11-25T12:26:21;10.97;;;3.93;;
11230;SDS011;5672;51.060;3.734;2022-11-25T12:28:54;13.57;;;4.80;;
11230;SDS011;5672;51.060;3.734;2022-11-25T12:31:22;14.90;;;4.85;;
11230;SDS011;5672;51.060;3.734;2022-11-25T12:36:30;21.10;;;5.07;;
11230;SDS011;5672;51.060;3.734;2022-11-25T12:41:27;14.97;;;4.23;;
11230;SDS011;5672;51.060;3.734;2022-11-25T12:44:15;12.63;;;4.40;;
11230;SDS011;5672;51.060;3.734;2022-11-25T12:46:46;12.50;;;4.53;;
11230;SDS011;5672;51.060;3.734;2022-11-25T13:00:02;17.10;;;3.90;;
11230;SDS011;5672;51.060;3.734;2022-11-25T13:08:03;19.83;;;4.73;;
11230;SDS011;5672;51.060;3.734;2022-11-25T13:15:40;13.67;;;4.50;;
11230;SDS011;5672;51.060;3.734;2022-11-25T13:18:09;15.80;;;4.70;;
11230;SDS011;5672;51.060;3.734;2022-11-25T13:20:43;17.50;;;4.97;;
11230;SDS011;5672;51.060;3.734;2022-11-25T13:25:38;13.13;;;4.90;;
11230;SDS011;5672;51.060;3.734;2022-11-25T13:28:23;20.93;;;4.90;;
11230;SDS011;5672;51.060;3.734;2022-11-25T13:30:51;15.63;;;4.37;;
11230;SDS011;5672;51.060;3.734;2022-11-25T13:49:04;18.95;;;7.10;;
11230;SDS011;5672;51.060;3.734;2022-11-25T13:51:30;26.07;;;6.27;;
11230;SDS011;5672;51.060;3.734;2022-11-25T13:53:58;16.40;;;5.33;;
11230;SDS011;5672;51.060;3.734;2022-11-25T13:56:29;15.07;;;5.93;;
11230;SDS011;5672;51.060;3.734;2022-11-25T14:04:11;14.00;;;5.23;;
11230;SDS011;5672;51.060;3.734;2022-11-25T14:06:46;15.00;;;4.90;;
11230;SDS011;5672;51.060;3.734;2022-11-25T14:12:17;15.90;;;5.37;;
11230;SDS011;5672;51.060;3.734;2022-11-25T14:20:13;11.83;;;4.50;;
11230;SDS011;5672;51.060;3.734;2022-11-25T14:25:15;17.90;;;4.67;;
11230;SDS011;5672;51.060;3.734;2022-11-25T14:27:45;16.70;;;4.83;;
11230;SDS011;5672;51.060;3.734;2022-11-25T14:30:12;10.60;;;4.07;;
11230;SDS011;5672;51.060;3.734;2022-11-25T14:32:43;14.33;;;3.90;;
11230;SDS011;5672;51.060;3.734;2022-11-25T14:35:11;14.20;;;4.17;;
11230;SDS011;5672;51.060;3.734;2022-11-25T14:37:43;14.60;;;3.87;;
11230;SDS011;5672;51.060;3.734;2022-11-25T14:40:14;12.13;;;3.73;;
11230;SDS011;5672;51.060;3.734;2022-11-25T14:42:44;12.67;;;4.50;;
11230;SDS011;5672;51.060;3.734;2022-11-25T14:45:21;15.47;;;4.13;;
11230;SDS011;5672;51.060;3.734;2022-11-25T14:47:47;10.30;;;3.70;;
11230;SDS011;5672;51.060;3.734;2022-11-25T14:50:13;13.47;;;3.70;;
11230;SDS011;5672;51.060;3.734;2022-11-25T14:52:40;13.33;;;4.10;;
11230;SDS011;5672;51.060;3.734;2022-11-25T14:55:11;12.77;;;3.80;;
11230;SDS011;5672;51.060;3.734;2022-11-25T14:57:38;10.77;;;3.47;;
11230;SDS011;5672;51.060;3.734;2022-11-25T15:00:07;9.43;;;3.13;;
11230;SDS011;5672;51.060;3.734;2022-11-25T15:02:34;13.07;;;4.10;;
11230;SDS011;5672;51.060;3.734;2022-11-25T15:05:02;11.23;;;4.07;;
11230;SDS011;5672;51.060;3.734;2022-11-25T15:07:33;12.80;;;3.03;;
11230;SDS011;5672;51.060;3.734;2022-11-25T15:10:02;11.67;;;3.10;;
11230;SDS011;5672;51.060;3.734;2022-11-25T15:12:29;13.70;;;3.40;;
11230;SDS011;5672;51.060;3.734;2022-11-25T15:14:56;11.60;;;3.20;;
11230;SDS011;5672;51.060;3.734;2022-11-25T15:17:29;10.50;;;3.30;;
11230;SDS011;5672;51.060;3.734;2022-11-25T15:20:00;9.70;;;3.10;;
11230;SDS011;5672;51.060;3.734;2022-11-25T15:22:29;12.83;;;3.30;;
11230;SDS011;5672;51.060;3.734;2022-11-25T15:25:04;13.17;;;3.70;;
11230;SDS011;5672;51.060;3.734;2022-11-25T15:27:31;10.13;;;3.50;;
11230;SDS011;5672;51.060;3.734;2022-11-25T15:29:57;11.10;;;3.30;;
11230;SDS011;5672;51.060;3.734;2022-11-25T15:32:24;12.07;;;3.70;;
11230;SDS011;5672;51.060;3.734;2022-11-25T15:34:51;13.00;;;3.40;;
11230;SDS011;5672;51.060;3.734;2022-11-25T15:37:18;10.17;;;3.37;;
11230;SDS011;5672;51.060;3.734;2022-11-25T15:39:44;13.93;;;3.80;;
11230;SDS011;5672;51.060;3.734;2022-11-25T15:42:23;15.30;;;5.43;;
11230;SDS011;5672;51.060;3.734;2022-11-25T15:45:00;19.87;;;6.23;;
11230;SDS011;5672;51.060;3.734;2022-11-25T15:47:29;15.15;;;5.88;;
11230;SDS011;5672;51.060;3.734;2022-11-25T15:52:31;16.20;;;5.17;;
11230;SDS011;5672;51.060;3.734;2022-11-25T15:55:15;17.33;;;5.33;;
11230;SDS011;5672;51.060;3.734;2022-11-25T15:57:43;18.80;;;5.13;;
11230;SDS011;5672;51.060;3.734;2022-11-25T16:00:23;14.27;;;4.67;;
11230;SDS011;5672;51.060;3.734;2022-11-25T16:02:50;13.07;;;4.27;;
11230;SDS011;5672;51.060;3.734;2022-11-25T16:05:22;12.50;;;4.50;;
11230;SDS011;5672;51.060;3.734;2022-11-25T16:18:13;14.10;;;4.63;;
11230;SDS011;5672;51.060;3.734;2022-11-25T16:20:49;50.60;;;29.40;;
11230;SDS011;5672;51.060;3.734;2022-11-25T16:23:15;82.40;;;48.27;;
11230;SDS011;5672;51.060;3.734;2022-11-25T16:25:48;70.93;;;42.20;;
11230;SDS011;5672;51.060;3.734;2022-11-25T16:28:21;59.47;;;33.03;;
11230;SDS011;5672;51.060;3.734;2022-11-25T16:30:49;127.07;;;61.73;;
11230;SDS011;5672;51.060;3.734;2022-11-25T16:33:15;268.57;;;57.70;;
11230;SDS011;5672;51.060;3.734;2022-11-25T16:35:41;36.80;;;15.07;;
11230;SDS011;5672;51.060;3.734;2022-11-25T16:38:10;29.87;;;10.67;;
11230;SDS011;5672;51.060;3.734;2022-11-25T16:40:37;26.17;;;10.20;;
11230;SDS011;5672;51.060;3.734;2022-11-25T16:43:13;34.67;;;15.00;;
11230;SDS011;5672;51.060;3.734;2022-11-25T16:45:40;24.90;;;12.40;;
11230;SDS011;5672;51.060;3.734;2022-11-25T16:48:13;30.33;;;9.13;;
11230;SDS011;5672;51.060;3.734;2022-11-25T16:50:41;21.47;;;8.27;;
11230;SDS011;5672;51.060;3.734;2022-11-25T16:53:07;23.27;;;8.30;;
11230;SDS011;5672;51.060;3.734;2022-11-25T16:55:33;20.37;;;8.00;;
11230;SDS011;5672;51.060;3.734;2022-11-25T16:58:00;20.20;;;6.70;;
11230;SDS011;5672;51.060;3.734;2022-11-25T17:00:26;13.57;;;5.60;;
11230;SDS011;5672;51.060;3.734;2022-11-25T17:02:52;22.13;;;6.40;;
11230;SDS011;5672;51.060;3.734;2022-11-25T17:07:44;15.83;;;5.50;;
11230;SDS011;5672;51.060;3.734;2022-11-25T17:10:11;15.87;;;5.70;;
11230;SDS011;5672;51.060;3.734;2022-11-25T17:12:38;18.27;;;5.67;;
11230;SDS011;5672;51.060;3.734;2022-11-25T17:15:06;18.23;;;6.30;;
11230;SDS011;5672;51.060;3.734;2022-11-25T17:17:32;17.40;;;6.37;;
11230;SDS011;5672;51.060;3.734;2022-11-25T17:19:58;19.07;;;6.20;;
11230;SDS011;5672;51.060;3.734;2022-11-25T17:22:25;15.83;;;5.97;;
11230;SDS011;5672;51.060;3.734;2022-11-25T17:24:53;19.37;;;7.30;;